Time;durP1;ratioP1;P1;durP2;ratioP2;P2;SDS_P1;SDS_P2;PMS_P1;PMS_P2;Temp;Humidity;BMP_temperature;BMP_pressure;BME280_temperature;BME280_humidity;BME280_pressure;Samples;Min_cycle;Max_cycle;Signal;HPM_P1;HPM_P2
2023/05/21 00:02:16;;;;;;;;;14.75;14.75;;;;;13.40;100.00;98885.69;4822046;28;102920;-72
2023/05/21 00:04:44;;;;;;;;;19.50;19.25;;;;;13.43;100.00;98881.72;4810867;28;102056;-71
2023/05/21 00:07:15;;;;;;;;;19.00;17.25;;;;;13.46;100.00;98875.03;4810356;29;103069;-72
2023/05/21 00:09:53;;;;;;;;;22.25;17.00;;;;;13.52;100.00;98874.16;4799644;29;108216;-71
2023/05/21 00:12:37;;;;;;;;;16.25;14.00;;;;;13.55;100.00;98868.31;4816208;29;102491;-72
2023/05/21 00:15:27;;;;;;;;;12.00;10.50;;;;;13.61;100.00;98871.00;4818283;28;103104;-72
2023/05/21 00:18:05;;;;;;;;;10.00;9.00;;;;;13.64;100.00;98867.03;4821732;28;103124;-72
2023/05/21 00:20:32;;;;;;;;;18.75;15.75;;;;;13.66;100.00;98864.94;4822329;28;106884;-72
2023/05/21 00:23:03;;;;;;;;;13.00;12.00;;;;;13.72;100.00;98873.06;4824148;28;102288;-72
2023/05/21 00:25:30;;;;;;;;;13.50;11.75;;;;;13.72;100.00;98867.63;4818562;29;102520;-71
2023/05/21 00:27:57;;;;;;;;;15.75;14.25;;;;;13.72;100.00;98866.81;4816378;29;102047;-72
2023/05/21 00:30:24;;;;;;;;;10.75;10.75;;;;;13.69;100.00;98854.47;4809857;29;106474;-72
2023/05/21 00:32:51;;;;;;;;;13.75;12.75;;;;;13.78;100.00;98860.47;4753937;28;103751;-71
2023/05/21 00:35:18;;;;;;;;;19.75;18.50;;;;;13.81;100.00;98860.06;4813518;28;101908;-72
2023/05/21 00:37:46;;;;;;;;;11.75;10.75;;;;;13.84;100.00;98868.63;4771841;28;102452;-72
2023/05/21 00:40:14;;;;;;;;;13.00;10.00;;;;;13.90;100.00;98863.38;4796257;28;104053;-72
2023/05/21 00:42:41;;;;;;;;;8.00;7.75;;;;;13.92;100.00;98859.38;4821954;28;102317;-72
2023/05/21 00:45:08;;;;;;;;;8.50;8.50;;;;;13.97;100.00;98861.44;4819007;28;102093;-72
2023/05/21 00:47:35;;;;;;;;;6.00;6.00;;;;;14.00;100.00;98858.31;4819455;28;102023;-71
2023/05/21 00:50:03;;;;;;;;;11.75;9.00;;;;;14.00;100.00;98852.88;4817736;29;104106;-70
2023/05/21 00:52:31;;;;;;;;;0.00;0.00;;;;;14.04;100.00;98863.13;4821105;28;101941;-72
2023/05/21 00:54:58;;;;;;;;;13.00;9.00;;;;;14.06;100.00;98843.84;4815804;28;102325;-72
2023/05/21 00:57:26;;;;;;;;;11.50;11.00;;;;;14.09;100.00;98851.59;4822959;28;102095;-72
2023/05/21 00:59:53;;;;;;;;;10.25;9.00;;;;;14.12;100.00;98851.13;4819000;28;104119;-72
2023/05/21 01:02:22;;;;;;;;;16.00;12.50;;;;;14.13;100.00;98844.66;4819308;28;102372;-71
2023/05/21 01:04:59;;;;;;;;;11.75;10.75;;;;;14.15;100.00;98848.81;4821856;28;102525;-72
2023/05/21 01:07:47;;;;;;;;;16.50;16.00;;;;;14.16;100.00;98845.03;4814090;28;102351;-72
2023/05/21 01:10:32;;;;;;;;;13.25;12.50;;;;;14.22;100.00;98851.50;4818198;28;103189;-72
2023/05/21 01:13:24;;;;;;;;;14.50;13.25;;;;;14.24;100.00;98844.78;4816429;28;102231;-71
2023/05/21 01:16:12;;;;;;;;;16.00;14.25;;;;;14.26;100.00;98841.84;4816757;28;104016;-72
2023/05/21 01:18:48;;;;;;;;;15.00;15.00;;;;;14.30;100.00;98838.47;4813283;28;102182;-72
2023/05/21 01:21:17;;;;;;;;;15.00;15.00;;;;;14.34;100.00;98833.44;4819871;28;104529;-72
2023/05/21 01:23:44;;;;;;;;;14.25;12.75;;;;;14.36;100.00;98836.81;4818143;28;102130;-72
2023/05/21 01:26:11;;;;;;;;;13.00;12.00;;;;;14.41;100.00;98825.28;4820280;28;102390;-72
2023/05/21 01:28:38;;;;;;;;;17.00;14.50;;;;;14.39;100.00;98827.34;4818537;28;103168;-72
2023/05/21 01:31:19;;;;;;;;;13.25;13.25;;;;;14.46;100.00;98830.84;4819530;28;104295;-71
2023/05/21 01:33:50;;;;;;;;;11.50;11.50;;;;;14.48;100.00;98829.59;4819223;28;102318;-71
2023/05/21 01:36:25;;;;;;;;;13.75;12.25;;;;;14.51;100.00;98834.59;4817492;28;101938;-70
2023/05/21 01:39:32;;;;;;;;;8.50;8.50;;;;;14.55;100.00;98829.53;4821946;28;103440;-71
2023/05/21 01:42:02;;;;;;;;;11.50;10.75;;;;;14.56;100.00;98828.47;4774352;29;108669;-71
2023/05/21 01:44:31;;;;;;;;;13.50;12.50;;;;;14.56;100.00;98826.59;4820986;28;101834;-72
2023/05/21 01:46:58;;;;;;;;;11.00;11.00;;;;;14.57;100.00;98827.44;4815145;29;107862;-71
2023/05/21 01:49:26;;;;;;;;;16.75;16.25;;;;;14.53;100.00;98820.78;4821100;28;102411;-70
2023/05/21 01:51:53;;;;;;;;;16.25;15.00;;;;;14.53;100.00;98827.06;4817932;28;104032;-71
2023/05/21 01:54:20;;;;;;;;;16.50;15.50;;;;;14.50;100.00;98819.31;4819162;29;102876;-71
2023/05/21 01:56:48;;;;;;;;;16.00;15.50;;;;;14.53;100.00;98809.88;4822714;28;103151;-71
2023/05/21 01:59:16;;;;;;;;;22.50;19.25;;;;;14.53;100.00;98816.16;4822915;29;101994;-71
2023/05/21 02:01:43;;;;;;;;;21.25;18.75;;;;;14.57;100.00;98816.56;4817665;29;103967;-71
2023/05/21 02:04:10;;;;;;;;;23.50;21.25;;;;;14.59;100.00;98814.47;4820648;29;102538;-71
2023/05/21 02:06:38;;;;;;;;;17.75;16.00;;;;;14.58;100.00;98818.22;4818063;28;102309;-71
2023/05/21 02:09:05;;;;;;;;;18.25;17.75;;;;;14.54;100.00;98814.28;4820718;29;102472;-71
2023/05/21 02:11:33;;;;;;;;;20.50;19.75;;;;;14.56;100.00;98813.00;4821940;28;104155;-71
2023/05/21 02:14:02;;;;;;;;;22.00;20.50;;;;;14.56;100.00;98798.56;4819888;28;102205;-70
2023/05/21 02:16:29;;;;;;;;;17.50;16.00;;;;;14.57;100.00;98802.94;4822684;29;104083;-71
2023/05/21 02:18:56;;;;;;;;;21.00;19.75;;;;;14.57;100.00;98805.66;4821324;28;102866;-71
2023/05/21 02:21:23;;;;;;;;;21.75;18.00;;;;;14.56;100.00;98809.44;4821723;29;104217;-70
2023/05/21 02:23:50;;;;;;;;;22.25;20.50;;;;;14.57;100.00;98806.50;4824111;29;102145;-71
2023/05/21 02:26:17;;;;;;;;;19.50;18.50;;;;;14.56;100.00;98798.56;4821967;29;102110;-71
2023/05/21 02:28:44;;;;;;;;;25.00;21.00;;;;;14.55;100.00;98800.44;4819124;28;106716;-71
2023/05/21 02:31:11;;;;;;;;;25.00;24.00;;;;;14.53;100.00;98799.84;4821759;29;104150;-71
2023/05/21 02:33:41;;;;;;;;;27.75;23.00;;;;;14.51;100.00;98798.38;4821732;28;102126;-71
2023/05/21 02:36:11;;;;;;;;;21.75;20.75;;;;;14.54;100.00;98797.97;4822168;28;102989;-70
2023/05/21 02:38:42;;;;;;;;;26.25;24.50;;;;;14.52;100.00;98792.72;4825969;29;102159;-71
2023/05/21 02:41:10;;;;;;;;;20.00;19.00;;;;;14.56;100.00;98790.38;4823741;28;104024;-71
2023/05/21 02:43:37;;;;;;;;;23.50;21.00;;;;;14.54;100.00;98789.78;4821819;29;102043;-71
2023/05/21 02:46:06;;;;;;;;;22.50;18.75;;;;;14.57;100.00;98783.91;4825539;28;102020;-71
2023/05/21 02:48:33;;;;;;;;;18.00;16.00;;;;;14.59;100.00;98776.34;4826305;28;102050;-71
2023/05/21 02:51:00;;;;;;;;;20.00;19.50;;;;;14.54;100.00;98778.91;4820293;28;108801;-72
2023/05/21 02:53:27;;;;;;;;;20.75;18.25;;;;;14.50;100.00;98778.50;4825227;28;102068;-72
2023/05/21 02:55:55;;;;;;;;;19.25;16.75;;;;;14.56;100.00;98776.78;4823018;29;102068;-72
2023/05/21 02:58:24;;;;;;;;;17.00;16.00;;;;;14.54;100.00;98781.63;4826277;28;102127;-72
2023/05/21 03:00:52;;;;;;;;;17.50;17.00;;;;;14.48;100.00;98779.78;4822506;28;104124;-72
2023/05/21 03:03:19;;;;;;;;;19.75;18.50;;;;;14.43;100.00;98780.44;4821264;28;102444;-72
2023/05/21 03:05:47;;;;;;;;;18.25;17.50;;;;;14.44;100.00;98778.56;4824819;29;102222;-71
2023/05/21 03:08:14;;;;;;;;;20.25;18.75;;;;;14.43;99.53;98787.78;4824496;28;102010;-72
2023/05/21 03:10:41;;;;;;;;;20.00;19.00;;;;;14.47;99.44;98783.56;4822402;29;104054;-72
2023/05/21 03:13:08;;;;;;;;;19.00;18.75;;;;;14.42;100.00;98781.50;4822440;28;102299;-72
2023/05/21 03:15:37;;;;;;;;;17.50;15.75;;;;;14.49;99.18;98784.19;4824739;28;102259;-70
2023/05/21 03:18:05;;;;;;;;;20.00;17.50;;;;;14.46;99.67;98781.88;4821778;29;102403;-69
2023/05/21 03:20:32;;;;;;;;;12.75;12.00;;;;;14.45;99.20;98781.06;4823648;28;104122;-72
2023/05/21 03:23:02;;;;;;;;;9.75;8.75;;;;;14.52;99.25;98786.44;4822087;28;102034;-72
2023/05/21 03:25:29;;;;;;;;;9.00;9.00;;;;;14.56;99.07;98788.50;4823760;29;102110;-72
2023/05/21 03:27:56;;;;;;;;;6.25;6.25;;;;;14.59;98.85;98795.41;4825228;28;102556;-72
2023/05/21 03:30:23;;;;;;;;;7.50;6.00;;;;;14.63;98.71;98799.34;4821736;28;104032;-72
2023/05/21 03:32:50;;;;;;;;;5.75;5.00;;;;;14.60;98.78;98797.06;4822606;28;102086;-72
2023/05/21 03:35:18;;;;;;;;;6.00;5.75;;;;;14.55;98.85;98796.88;4822485;29;102018;-72
2023/05/21 03:37:45;;;;;;;;;6.00;6.00;;;;;14.55;99.41;98796.88;4824468;29;102277;-72
2023/05/21 03:40:12;;;;;;;;;3.00;3.00;;;;;14.59;99.04;98792.69;4821852;28;104143;-72
2023/05/21 03:42:39;;;;;;;;;5.25;5.00;;;;;14.60;98.41;98792.44;4822349;28;102257;-72
2023/05/21 03:45:07;;;;;;;;;8.00;7.50;;;;;14.61;97.97;98794.13;4822908;28;102312;-71
2023/05/21 03:47:35;;;;;;;;;6.00;5.00;;;;;14.62;97.82;98792.22;4824017;29;103116;-72
2023/05/21 03:50:02;;;;;;;;;4.50;3.50;;;;;14.64;97.95;98790.09;4822751;28;108887;-72
2023/05/21 03:52:29;;;;;;;;;3.25;3.25;;;;;14.64;97.86;98784.66;4820628;28;102450;-72
2023/05/21 03:54:56;;;;;;;;;5.00;5.00;;;;;14.69;97.14;98793.00;4823925;29;102289;-72
2023/05/21 03:57:23;;;;;;;;;4.00;3.25;;;;;14.68;97.67;98791.31;4821760;28;102278;-72
2023/05/21 03:59:50;;;;;;;;;4.00;4.00;;;;;14.62;97.45;98793.06;4820355;28;104156;-72
2023/05/21 04:02:17;;;;;;;;;6.00;6.00;;;;;14.46;98.88;98784.59;4819357;28;102068;-72
2023/05/21 04:04:45;;;;;;;;;8.75;8.00;;;;;14.44;99.32;98781.28;4820389;28;102017;-73
2023/05/21 04:07:14;;;;;;;;;7.75;7.75;;;;;14.49;99.04;98782.28;4823462;29;102233;-72
2023/05/21 04:09:41;;;;;;;;;5.00;5.00;;;;;14.53;98.59;98777.25;4820459;28;104076;-72
2023/05/21 04:12:08;;;;;;;;;6.00;5.75;;;;;14.54;99.43;98771.59;4819819;28;108295;-72
2023/05/21 04:14:36;;;;;;;;;4.75;4.00;;;;;14.61;98.35;98780.50;4823916;28;102170;-72
2023/05/21 04:17:04;;;;;;;;;7.00;6.50;;;;;14.65;96.81;98776.28;4823753;28;102431;-72
2023/05/21 04:19:31;;;;;;;;;5.50;5.00;;;;;14.74;97.07;98790.44;4820085;28;108739;-72
2023/05/21 04:21:58;;;;;;;;;6.50;5.00;;;;;14.85;97.34;98787.00;4823821;28;102309;-72
2023/05/21 04:24:25;;;;;;;;;5.00;5.00;;;;;14.93;96.75;98785.88;4821864;29;102195;-73
2023/05/21 04:26:52;;;;;;;;;4.50;4.50;;;;;15.03;95.94;98787.03;4821842;29;102408;-72
2023/05/21 04:29:20;;;;;;;;;7.75;7.50;;;;;15.11;95.70;98791.34;4822727;29;104314;-72
2023/05/21 04:31:48;;;;;;;;;7.50;7.50;;;;;15.27;93.63;98790.75;4824551;28;102052;-73
2023/05/21 04:34:18;;;;;;;;;7.00;7.00;;;;;15.55;93.19;98790.25;4820632;28;102294;-72
2023/05/21 04:36:46;;;;;;;;;8.50;8.50;;;;;15.78;93.44;98795.00;4825536;28;102598;-73
2023/05/21 04:39:13;;;;;;;;;9.00;9.00;;;;;15.99;91.57;98798.06;4822377;28;104015;-73
2023/05/21 04:41:40;;;;;;;;;11.50;9.00;;;;;16.24;89.51;98800.66;4823143;28;102100;-72
2023/05/21 04:44:08;;;;;;;;;11.75;10.75;;;;;16.90;87.52;98799.59;4821865;29;101811;-72
2023/05/21 04:46:35;;;;;;;;;12.75;12.75;;;;;17.17;82.86;98787.13;4826567;29;102050;-72
2023/05/21 04:49:02;;;;;;;;;9.00;8.75;;;;;17.72;79.77;98801.22;4807086;29;109104;-73
2023/05/21 04:51:30;;;;;;;;;13.25;13.00;;;;;18.03;80.86;98801.81;4818183;29;102503;-70
2023/05/21 04:53:57;;;;;;;;;15.50;13.50;;;;;18.50;79.71;98797.78;4821541;28;102019;-70
2023/05/21 04:56:27;;;;;;;;;12.00;12.00;;;;;18.78;76.88;98799.63;4822999;29;102277;-71
2023/05/21 04:58:54;;;;;;;;;13.00;13.00;;;;;19.25;77.35;98794.63;4819819;28;104149;-71
2023/05/21 05:01:22;;;;;;;;;17.67;16.00;;;;;19.58;75.35;98794.59;4820742;29;102746;-71
2023/05/21 05:03:50;;;;;;;;;16.67;16.67;;;;;19.82;74.34;98794.31;4819474;28;102298;-71
2023/05/21 05:06:17;;;;;;;;;10.00;10.00;;;;;20.21;70.58;98795.03;4822472;28;102346;-70
2023/05/21 05:08:45;;;;;;;;;11.00;10.67;;;;;20.08;67.57;98790.78;4819060;28;104043;-71
2023/05/21 05:11:12;;;;;;;;;10.00;10.00;;;;;20.30;69.36;98797.09;4820346;28;102177;-72
2023/05/21 05:13:42;;;;;;;;;11.67;10.67;;;;;20.18;66.11;98790.06;4820350;28;101946;-71
2023/05/21 05:16:10;;;;;;;;;10.00;9.33;;;;;20.71;66.87;98797.50;4823792;28;102378;-72
2023/05/21 05:18:37;;;;;;;;;8.00;7.67;;;;;20.56;66.47;98794.59;4820146;28;104028;-71
2023/05/21 05:21:04;;;;;;;;;13.67;11.67;;;;;20.93;62.94;98795.47;4823023;29;102003;-72
2023/05/21 05:23:31;;;;;;;;;9.67;9.67;;;;;20.51;68.37;98794.53;4820478;28;101976;-72
2023/05/21 05:25:58;;;;;;;;;9.67;9.00;;;;;20.85;66.45;98798.69;4822751;28;102424;-71
2023/05/21 05:28:25;;;;;;;;;10.33;9.00;;;;;20.86;64.43;98792.94;4818644;29;104049;-71
2023/05/21 05:30:52;;;;;;;;;10.67;10.00;;;;;21.21;64.83;98802.56;4822666;28;101908;-71
2023/05/21 05:33:19;;;;;;;;;11.00;10.67;;;;;21.41;63.31;98799.13;4818825;28;102770;-71
2023/05/21 05:35:46;;;;;;;;;11.67;11.00;;;;;20.69;65.35;98805.16;4822688;28;102377;-71
2023/05/21 05:38:13;;;;;;;;;11.00;9.67;;;;;20.97;64.14;98787.53;4821471;28;104144;-71
2023/05/21 05:40:40;;;;;;;;;11.67;10.33;;;;;20.79;63.27;98795.09;4821635;28;102561;-71
2023/05/21 05:43:07;;;;;;;;;10.33;9.33;;;;;20.79;63.80;98786.00;4821256;28;101869;-70
2023/05/21 05:45:34;;;;;;;;;12.00;10.67;;;;;20.99;63.62;98799.06;4824467;29;101998;-71
2023/05/21 05:48:01;;;;;;;;;12.00;11.00;;;;;20.61;63.09;98800.97;4818278;29;108984;-71
2023/05/21 05:50:28;;;;;;;;;10.67;10.67;;;;;20.84;66.83;98797.88;4821977;29;102200;-71
2023/05/21 05:52:56;;;;;;;;;10.00;10.00;;;;;20.90;62.50;98790.47;4821229;29;101992;-70
2023/05/21 05:55:24;;;;;;;;;13.00;13.00;;;;;20.80;64.39;98791.22;4820915;29;102285;-71
2023/05/21 05:57:51;;;;;;;;;12.67;11.00;;;;;20.74;63.57;98791.47;4822060;28;104448;-71
2023/05/21 06:00:18;;;;;;;;;6.00;6.00;;;;;21.26;63.46;98783.34;4825045;28;102068;-71
2023/05/21 06:02:46;;;;;;;;;8.67;8.33;;;;;21.32;63.15;98787.78;4823379;29;102181;-71
2023/05/21 06:05:14;;;;;;;;;10.00;9.00;;;;;21.49;61.52;98787.59;4826156;28;101909;-71
2023/05/21 06:07:41;;;;;;;;;8.00;7.67;;;;;21.88;60.40;98788.91;4821185;28;104088;-72
2023/05/21 06:10:08;;;;;;;;;7.67;7.67;;;;;22.00;61.75;98788.69;4824716;28;102033;-72
2023/05/21 06:12:35;;;;;;;;;10.67;10.00;;;;;21.80;62.54;98778.38;4828162;29;102398;-71
2023/05/21 06:15:03;;;;;;;;;7.33;7.33;;;;;22.18;59.32;98790.94;4825416;28;101939;-71
2023/05/21 06:17:30;;;;;;;;;11.33;10.33;;;;;22.14;62.81;98790.66;4824525;28;107776;-72
2023/05/21 06:19:58;;;;;;;;;9.33;9.33;;;;;22.55;58.17;98785.25;4826812;28;102100;-71
2023/05/21 06:22:25;;;;;;;;;11.33;9.00;;;;;23.05;57.42;98784.44;4823293;28;102706;-71
2023/05/21 06:24:52;;;;;;;;;8.00;8.00;;;;;22.81;58.94;98778.66;4823902;28;102025;-71
2023/05/21 06:27:19;;;;;;;;;10.00;10.00;;;;;23.10;56.88;98774.22;4822183;28;104058;-71
2023/05/21 06:29:46;;;;;;;;;6.00;6.00;;;;;23.10;57.05;98771.44;4824956;28;102416;-72
2023/05/21 06:32:13;;;;;;;;;11.67;10.33;;;;;22.86;56.34;98770.41;4822718;28;101990;-72
2023/05/21 06:34:40;;;;;;;;;8.33;8.33;;;;;23.29;57.79;98766.19;4824727;29;102060;-71
2023/05/21 06:37:07;;;;;;;;;10.00;10.00;;;;;23.27;58.01;98764.81;4822664;28;104000;-72
2023/05/21 06:39:34;;;;;;;;;7.67;7.33;;;;;23.39;56.72;98762.56;4823300;28;101920;-71
2023/05/21 06:42:01;;;;;;;;;8.00;8.00;;;;;23.77;57.39;98767.47;4825130;28;102274;-71
2023/05/21 06:44:28;;;;;;;;;10.00;9.00;;;;;23.83;54.91;98771.84;4823380;28;102505;-71
2023/05/21 06:46:55;;;;;;;;;7.00;7.00;;;;;23.72;53.21;98766.66;4821079;28;104058;-71
2023/05/21 06:49:22;;;;;;;;;10.33;9.33;;;;;23.70;55.54;98755.88;4824093;28;102419;-71
2023/05/21 06:51:49;;;;;;;;;9.00;9.00;;;;;23.90;57.01;98754.97;4822710;28;102073;-71
2023/05/21 06:54:16;;;;;;;;;9.67;9.67;;;;;23.88;53.55;98760.75;4822453;29;101949;-71
2023/05/21 06:56:43;;;;;;;;;6.67;6.67;;;;;24.28;52.83;98753.38;4823812;29;104108;-71
2023/05/21 06:59:10;;;;;;;;;10.00;9.67;;;;;23.96;54.44;98745.53;4818298;29;102017;-70
2023/05/21 07:01:41;;;;;;;;;12.33;11.00;;;;;23.41;55.91;98750.16;4823452;28;101842;-70
2023/05/21 07:04:08;;;;;;;;;6.00;5.00;;;;;23.85;55.51;98749.47;4823762;29;102442;-70
2023/05/21 07:06:36;;;;;;;;;6.00;6.00;;;;;24.47;54.91;98751.59;4825634;29;103991;-71
2023/05/21 07:09:04;;;;;;;;;5.67;5.67;;;;;24.60;52.47;98750.94;4819279;28;102995;-71
2023/05/21 07:11:32;;;;;;;;;6.67;6.00;;;;;24.59;50.77;98742.94;4817818;28;104572;-70
2023/05/21 07:14:02;;;;;;;;;6.00;6.00;;;;;24.21;51.29;98747.38;4823003;28;102202;-71
2023/05/21 07:16:29;;;;;;;;;9.00;8.00;;;;;24.05;53.18;98743.00;4820672;28;104149;-71
2023/05/21 07:18:56;;;;;;;;;10.00;9.67;;;;;23.79;52.94;98739.53;4822308;28;102189;-71
2023/05/21 07:21:23;;;;;;;;;8.33;8.00;;;;;24.23;52.31;98739.59;4820291;28;102448;-71
2023/05/21 07:23:50;;;;;;;;;6.00;6.00;;;;;23.88;53.52;98733.16;4818583;28;102541;-71
2023/05/21 07:26:17;;;;;;;;;6.00;6.00;;;;;24.03;53.92;98740.53;4823737;29;104131;-71
2023/05/21 07:28:44;;;;;;;;;5.00;5.00;;;;;24.26;53.33;98734.34;4823013;28;102342;-71
2023/05/21 07:31:11;;;;;;;;;8.00;7.00;;;;;23.97;52.26;98736.97;4821300;29;103016;-71
2023/05/21 07:33:39;;;;;;;;;8.67;7.00;;;;;24.04;51.71;98731.13;4824040;29;102164;-71
2023/05/21 07:36:06;;;;;;;;;6.33;6.33;;;;;24.06;51.56;98726.13;4822770;28;104182;-71
2023/05/21 07:38:33;;;;;;;;;7.00;7.00;;;;;23.93;52.07;98735.06;4821917;28;102041;-71
2023/05/21 07:41:00;;;;;;;;;9.00;9.00;;;;;23.72;52.77;98726.06;4820253;28;102113;-70
2023/05/21 07:43:27;;;;;;;;;7.00;6.00;;;;;23.88;51.70;98727.63;4824549;28;102274;-70
2023/05/21 07:45:54;;;;;;;;;7.67;7.67;;;;;23.88;53.99;98721.28;4819737;28;104023;-71
2023/05/21 07:48:21;;;;;;;;;7.33;5.33;;;;;23.96;53.47;98726.19;4822668;29;102216;-71
2023/05/21 07:50:48;;;;;;;;;6.67;6.33;;;;;24.23;51.77;98721.06;4822276;28;101990;-71
2023/05/21 07:53:15;;;;;;;;;6.67;6.33;;;;;24.41;51.65;98725.94;4823671;28;102452;-71
2023/05/21 07:55:46;;;;;;;;;6.00;6.00;;;;;24.54;51.25;98707.84;4823679;29;104120;-71
2023/05/21 07:58:17;;;;;;;;;8.00;7.67;;;;;24.38;51.80;98720.16;4821279;29;101828;-71
2023/05/21 08:00:46;;;;;;;;;6.00;6.00;;;;;24.67;51.65;98725.75;4818624;28;102073;-71
2023/05/21 08:03:17;;;;;;;;;8.67;8.00;;;;;24.16;48.70;98722.53;4822512;29;102385;-71
2023/05/21 08:05:48;;;;;;;;;8.67;8.00;;;;;24.20;48.92;98715.31;4824062;28;103784;-71
2023/05/21 08:08:18;;;;;;;;;2.00;2.00;;;;;24.34;47.16;98708.84;4819877;29;102072;-71
2023/05/21 08:10:46;;;;;;;;;6.33;6.00;;;;;24.32;47.81;98713.84;4819911;29;102029;-71
2023/05/21 08:13:15;;;;;;;;;7.00;6.33;;;;;24.46;50.89;98716.78;4823540;28;101980;-71
2023/05/21 08:15:42;;;;;;;;;7.00;6.00;;;;;24.09;46.89;98706.22;4821883;28;103994;-71
2023/05/21 08:18:10;;;;;;;;;7.00;6.67;;;;;24.06;48.00;98717.03;4821287;28;102388;-71
2023/05/21 08:20:37;;;;;;;;;6.00;6.00;;;;;24.15;47.99;98712.53;4821545;28;102178;-69
2023/05/21 08:23:04;;;;;;;;;7.00;6.67;;;;;24.21;46.30;98720.56;4826757;29;102222;-71
2023/05/21 08:25:32;;;;;;;;;7.00;7.00;;;;;24.30;46.23;98734.59;4816838;29;104064;-69
2023/05/21 08:27:58;;;;;;;;;6.00;6.00;;;;;24.47;46.66;98715.66;4820828;28;102262;-71
2023/05/21 08:30:25;;;;;;;;;5.33;5.33;;;;;24.52;45.82;98725.84;4820875;28;102599;-72
2023/05/21 08:32:53;;;;;;;;;6.33;5.67;;;;;24.53;46.09;98728.34;4821734;28;102489;-71
2023/05/21 08:35:21;;;;;;;;;7.33;7.33;;;;;24.38;47.13;98720.16;4819749;29;104128;-72
2023/05/21 08:37:48;;;;;;;;;5.33;5.33;;;;;24.66;45.11;98716.63;4819512;28;103207;-72
2023/05/21 08:40:15;;;;;;;;;9.00;7.00;;;;;24.58;48.38;98714.47;4822256;28;101956;-71
2023/05/21 08:42:44;;;;;;;;;9.33;8.67;;;;;24.74;45.38;98706.84;4818128;29;102615;-71
2023/05/21 08:45:13;;;;;;;;;5.33;5.33;;;;;24.72;46.30;98715.44;4823170;28;104030;-71
2023/05/21 08:47:42;;;;;;;;;5.67;5.67;;;;;24.93;46.92;98713.34;4820691;29;102484;-72
2023/05/21 08:50:18;;;;;;;;;5.33;5.33;;;;;24.90;47.74;98707.59;4822629;29;102295;-71
2023/05/21 08:52:45;;;;;;;;;4.67;4.00;;;;;25.33;47.22;98720.41;4823849;28;102604;-71
2023/05/21 08:55:12;;;;;;;;;4.00;4.00;;;;;25.00;43.73;98722.13;4820512;29;104039;-72
2023/05/21 08:57:42;;;;;;;;;5.00;5.00;;;;;24.93;44.28;98716.13;4822910;29;102478;-70
2023/05/21 09:00:10;;;;;;;;;5.00;5.00;;;;;25.04;45.13;98712.13;4820752;28;102365;-71
2023/05/21 09:02:42;;;;;;;;;5.67;5.00;;;;;25.05;44.97;98701.88;4824846;28;101928;-69
2023/05/21 09:05:10;;;;;;;;;3.67;3.00;;;;;25.15;45.52;98701.78;4818628;28;109983;-71
2023/05/21 09:07:45;;;;;;;;;3.00;3.00;;;;;25.21;45.41;98706.16;4825337;29;102159;-72
2023/05/21 09:10:13;;;;;;;;;5.00;5.00;;;;;25.18;44.98;98709.50;4820728;28;103054;-72
2023/05/21 09:12:40;;;;;;;;;5.33;5.33;;;;;24.95;44.08;98713.06;4819693;28;102425;-71
2023/05/21 09:15:08;;;;;;;;;5.00;5.00;;;;;24.91;47.39;98714.75;4821750;28;104026;-71
2023/05/21 09:17:35;;;;;;;;;6.00;6.00;;;;;24.86;44.09;98713.69;4822288;28;101977;-72
2023/05/21 09:20:15;;;;;;;;;5.67;5.67;;;;;24.79;44.80;98715.94;4821854;29;105066;-71
2023/05/21 09:22:48;;;;;;;;;5.67;5.67;;;;;25.09;46.41;98711.25;4819207;28;101923;-71
2023/05/21 09:25:17;;;;;;;;;6.00;6.00;;;;;25.26;44.02;98711.63;4817373;29;103373;-72
2023/05/21 09:27:44;;;;;;;;;5.00;5.00;;;;;25.23;44.79;98709.44;4820341;29;102550;-72
2023/05/21 09:30:14;;;;;;;;;3.33;3.33;;;;;25.44;45.43;98702.53;4821627;29;102778;-71
2023/05/21 09:32:44;;;;;;;;;3.00;3.00;;;;;25.56;44.92;98714.06;4822034;28;102332;-72
2023/05/21 09:35:14;;;;;;;;;6.33;5.00;;;;;25.11;43.38;98706.25;4824895;29;104048;-72
2023/05/21 09:37:43;;;;;;;;;4.00;4.00;;;;;24.95;44.75;98711.09;4826139;28;102114;-71
2023/05/21 09:40:19;;;;;;;;;4.67;4.33;;;;;25.38;43.57;98712.03;4823352;28;102107;-71
2023/05/21 09:42:50;;;;;;;;;4.67;4.67;;;;;25.31;43.74;98709.63;4827066;28;103106;-72
2023/05/21 09:45:24;;;;;;;;;4.00;4.00;;;;;25.42;42.51;98713.09;4823443;29;104090;-72
2023/05/21 09:47:53;;;;;;;;;6.67;6.00;;;;;25.32;43.62;98707.69;4823054;28;102047;-72
2023/05/21 09:50:27;;;;;;;;;4.67;4.67;;;;;25.14;45.28;98705.66;4821780;28;102059;-71
2023/05/21 09:52:54;;;;;;;;;5.67;5.67;;;;;24.85;42.97;98702.91;4826403;28;102120;-72
2023/05/21 09:55:23;;;;;;;;;5.67;5.67;;;;;25.11;42.60;98700.72;4823694;29;104070;-73
2023/05/21 09:57:51;;;;;;;;;7.00;7.00;;;;;25.12;42.51;98700.44;4824521;28;102579;-72
2023/05/21 10:00:23;;;;;;;;;6.00;6.00;;;;;25.16;41.02;98703.44;4819960;28;102296;-71
2023/05/21 10:02:56;;;;;;;;;5.67;5.67;;;;;25.27;41.72;98694.72;4826798;29;102341;-71
2023/05/21 10:05:28;;;;;;;;;7.00;5.00;;;;;25.32;41.07;98696.59;4823291;28;104071;-70
2023/05/21 10:08:03;;;;;;;;;4.00;4.00;;;;;25.36;41.10;98692.13;4826636;28;101916;-72
2023/05/21 10:10:31;;;;;;;;;4.00;4.00;;;;;25.21;44.16;98690.38;4820522;29;102256;-72
2023/05/21 10:13:08;;;;;;;;;5.67;5.00;;;;;24.88;40.68;98681.03;4823230;29;103029;-71
2023/05/21 10:15:42;;;;;;;;;6.00;5.67;;;;;25.08;42.45;98687.47;4822636;29;108515;-71
2023/05/21 10:18:11;;;;;;;;;5.33;4.33;;;;;25.13;39.86;98681.88;4824239;29;102309;-71
2023/05/21 10:20:39;;;;;;;;;4.00;4.00;;;;;25.06;40.86;98687.75;4821882;28;102090;-70
2023/05/21 10:23:07;;;;;;;;;4.00;4.00;;;;;25.15;41.97;98674.94;4824761;29;102050;-71
2023/05/21 10:25:35;;;;;;;;;4.67;4.67;;;;;25.32;40.27;98680.81;4822329;28;108616;-71
2023/05/21 10:28:02;;;;;;;;;5.00;5.00;;;;;25.36;41.68;98683.00;4824383;29;102227;-72
2023/05/21 10:30:30;;;;;;;;;4.00;4.00;;;;;25.64;44.51;98684.88;4825020;29;102078;-71
2023/05/21 10:32:58;;;;;;;;;6.00;6.00;;;;;25.35;40.59;98679.44;4823287;29;102308;-73
2023/05/21 10:35:26;;;;;;;;;6.67;4.00;;;;;25.56;38.19;98674.47;4820119;29;104042;-71
2023/05/21 10:37:55;;;;;;;;;5.00;4.00;;;;;25.66;41.57;98671.59;4806271;29;101983;-72
2023/05/21 10:40:24;;;;;;;;;5.00;5.00;;;;;25.61;42.71;98678.00;4821388;29;102074;-73
2023/05/21 10:43:30;;;;;;;;;6.00;6.00;;;;;25.42;41.49;98670.75;4822991;28;102065;-72
2023/05/21 10:46:21;;;;;;;;;7.00;7.00;;;;;25.09;39.89;98678.03;4821162;29;108757;-70
2023/05/21 10:49:06;;;;;;;;;8.00;8.00;;;;;25.13;41.83;98676.34;4824821;29;102676;-71
2023/05/21 10:52:10;;;;;;;;;4.33;4.33;;;;;25.36;43.46;98674.69;4821859;29;102003;-72
2023/05/21 10:54:51;;;;;;;;;5.67;5.00;;;;;25.44;42.06;98677.63;4823598;28;102013;-72
2023/05/21 10:57:27;;;;;;;;;6.00;6.00;;;;;25.46;42.08;98672.63;4820606;28;108597;-72
2023/05/21 10:59:57;;;;;;;;;6.00;6.00;;;;;25.61;42.67;98672.47;4824354;28;102673;-72
2023/05/21 11:02:26;;;;;;;;;5.00;4.00;;;;;25.49;41.08;98672.03;4823421;29;106446;-72
2023/05/21 11:05:00;;;;;;;;;9.33;6.67;;;;;25.35;41.65;98673.88;4825616;29;101976;-72
2023/05/21 11:07:55;;;;;;;;;6.33;6.33;;;;;25.53;39.96;98670.31;4817556;28;103980;-72
2023/05/21 11:10:39;;;;;;;;;4.33;4.33;;;;;25.42;37.68;98649.41;4818668;28;102114;-72
2023/05/21 11:13:06;;;;;;;;;6.33;6.33;;;;;25.47;41.60;98662.38;4820326;28;102112;-73
2023/05/21 11:15:56;;;;;;;;;7.00;7.00;;;;;25.48;41.59;98659.31;4822052;28;103410;-72
2023/05/21 11:18:30;;;;;;;;;6.33;6.33;;;;;25.32;40.10;98660.63;4810620;29;108563;-71
2023/05/21 11:21:03;;;;;;;;;6.00;5.67;;;;;25.41;39.92;98660.78;4823607;28;102913;-72
2023/05/21 11:24:03;;;;;;;;;7.00;6.00;;;;;25.29;40.52;98666.75;4824678;28;102458;-71
2023/05/21 11:26:53;;;;;;;;;5.33;5.33;;;;;25.31;41.25;98661.72;4812379;28;102739;-71
2023/05/21 11:29:32;;;;;;;;;6.00;6.00;;;;;25.36;41.13;98653.38;4821878;29;108780;-73